createdAt,value
2024-01-29T00:00:00.063Z,98825.38
2024-01-29T00:02:30.278Z,98822.94
2024-01-29T00:04:58.090Z,98825.69
2024-01-29T00:07:25.722Z,98826.59
2024-01-29T00:09:53.365Z,98828.50
2024-01-29T00:12:21.102Z,98827.75
2024-01-29T00:14:48.778Z,98839.28
2024-01-29T00:17:16.346Z,98833.34
2024-01-29T00:19:44.025Z,98829.94
2024-01-29T00:22:11.677Z,98824.84
2024-01-29T00:24:39.461Z,98825.91
2024-01-29T00:27:07.015Z,98833.06
2024-01-29T00:29:34.887Z,98827.13
2024-01-29T00:32:02.488Z,98825.44
2024-01-29T00:34:30.145Z,98830.84
2024-01-29T00:36:57.922Z,98828.38
2024-01-29T00:39:25.570Z,98829.41
2024-01-29T00:41:53.177Z,98831.19
2024-01-29T00:44:21.107Z,98822.59
2024-01-29T00:46:48.682Z,98823.56
2024-01-29T00:49:16.317Z,98817.47
2024-01-29T00:51:44.282Z,98827.13
2024-01-29T00:54:11.962Z,98826.50
2024-01-29T00:56:39.665Z,98822.25
2024-01-29T00:59:07.206Z,98821.50
2024-01-29T01:01:34.958Z,98833.75
2024-01-29T01:04:02.748Z,98824.22
2024-01-29T01:06:30.348Z,98826.03
2024-01-29T01:08:57.968Z,98815.47
2024-01-29T01:11:25.602Z,98817.38
2024-01-29T01:13:54.625Z,98815.78
2024-01-29T01:16:22.350Z,98812.19
2024-01-29T01:18:50.228Z,98821.81
2024-01-29T01:21:18.399Z,98823.03
2024-01-29T01:23:45.955Z,98827.34
2024-01-29T01:26:14.126Z,98818.69
2024-01-29T01:28:41.717Z,98826.50
2024-01-29T01:31:09.394Z,98826.59
2024-01-29T01:33:36.991Z,98827.53
2024-01-29T01:36:05.097Z,98821.31
2024-01-29T01:38:32.921Z,98827.34
2024-01-29T01:41:00.508Z,98822.94
2024-01-29T01:43:28.084Z,98821.13
2024-01-29T01:46:05.134Z,98821.97
2024-01-29T01:48:35.140Z,98820.28
2024-01-29T01:51:05.294Z,98830.84
2024-01-29T01:53:35.757Z,98819.44
2024-01-29T01:56:05.142Z,98830.94
2024-01-29T01:58:34.801Z,98818.78
2024-01-29T02:01:02.708Z,98817.00
2024-01-29T02:03:30.536Z,98819.63
2024-01-29T02:05:58.263Z,98821.53
2024-01-29T02:08:26.277Z,98822.44
2024-01-29T02:10:57.365Z,98814.53
2024-01-29T02:13:25.346Z,98822.44
2024-01-29T02:15:53.251Z,98818.03
2024-01-29T02:18:20.921Z,98820.69
2024-01-29T02:20:48.600Z,98819.72
2024-01-29T02:23:16.147Z,98815.28
2024-01-29T02:25:43.716Z,98813.59
2024-01-29T02:28:11.311Z,98813.59
2024-01-29T02:30:39.286Z,98818.88
2024-01-29T02:33:06.956Z,98818.97
2024-01-29T02:35:34.680Z,98814.53
2024-01-29T02:38:02.273Z,98815.41
2024-01-29T02:40:29.887Z,98810.31
2024-01-29T02:42:57.627Z,98812.94
2024-01-29T02:45:25.208Z,98815.59
2024-01-29T02:47:52.868Z,98813.88
2024-01-29T02:50:21.134Z,98816.50
2024-01-29T02:52:48.706Z,98815.66
2024-01-29T02:55:16.325Z,98810.41
2024-01-29T02:57:44.025Z,98810.31
2024-01-29T03:00:12.003Z,98815.50
2024-01-29T03:02:39.577Z,98813.69
2024-01-29T03:05:08.424Z,98804.84
2024-01-29T03:07:36.196Z,98805.69
2024-01-29T03:10:04.186Z,98802.97
2024-01-29T03:12:31.913Z,98807.19
2024-01-29T03:15:01.604Z,98811.63
2024-01-29T03:17:31.096Z,98810.75
2024-01-29T03:19:58.947Z,98814.34
2024-01-29T03:22:26.725Z,98814.63
2024-01-29T03:24:54.459Z,98813.03
2024-01-29T03:27:22.102Z,98811.34
2024-01-29T03:29:49.770Z,98816.72
2024-01-29T03:32:17.482Z,98817.56
2024-01-29T03:34:45.631Z,98814.16
2024-01-29T03:37:13.640Z,98813.25
2024-01-29T03:39:41.328Z,98802.03
2024-01-29T03:42:09.608Z,98814.47
2024-01-29T03:44:37.184Z,98802.19
2024-01-29T03:47:04.942Z,98806.72
2024-01-29T03:49:32.612Z,98805.97
2024-01-29T03:52:00.217Z,98809.66
2024-01-29T03:54:27.928Z,98801.91
2024-01-29T03:56:55.558Z,98807.47
2024-01-29T03:59:23.232Z,98798.81
2024-01-29T04:01:51.178Z,98799.66
2024-01-29T04:04:18.913Z,98799.94
2024-01-29T04:06:48.005Z,98794.84
2024-01-29T04:09:22.055Z,98795.91
2024-01-29T04:11:53.037Z,98794.94
2024-01-29T04:14:23.818Z,98799.28
2024-01-29T04:16:52.068Z,98804.56
2024-01-29T04:19:19.782Z,98800.28
2024-01-29T04:21:47.569Z,98800.41
2024-01-29T04:24:16.916Z,98795.03
2024-01-29T04:26:44.466Z,98797.56
2024-01-29T04:29:12.285Z,98802.00
2024-01-29T04:31:39.845Z,98808.13
2024-01-29T04:34:07.693Z,98814.34
2024-01-29T04:36:35.338Z,98802.94
2024-01-29T04:39:04.211Z,98805.47
2024-01-29T04:41:32.082Z,98816.03
2024-01-29T04:43:59.693Z,98807.19
2024-01-29T04:46:27.268Z,98812.63
2024-01-29T04:48:54.973Z,98816.13
2024-01-29T04:51:23.078Z,98821.28
2024-01-29T04:53:50.699Z,98819.41
2024-01-29T04:56:18.577Z,98821.28
2024-01-29T04:58:47.131Z,98821.28
2024-01-29T05:01:14.850Z,98822.06
2024-01-29T05:03:42.665Z,98811.50
2024-01-29T05:06:10.972Z,98807.28
2024-01-29T05:08:38.550Z,98811.59
2024-01-29T05:11:06.222Z,98822.91
2024-01-29T05:13:34.301Z,98824.53
2024-01-29T05:16:03.035Z,98821.78
2024-01-29T05:18:31.375Z,98816.31
2024-01-29T05:20:58.926Z,98810.78
2024-01-29T05:23:26.482Z,98820.19
2024-01-29T05:25:54.056Z,98822.53
2024-01-29T05:28:22.669Z,98819.75
2024-01-29T05:30:53.050Z,98818.13
2024-01-29T05:33:25.668Z,98815.47
2024-01-29T05:35:58.066Z,98818.22
2024-01-29T05:38:26.285Z,98822.53
2024-01-29T05:40:53.927Z,98818.88
2024-01-29T05:43:21.682Z,98831.13
2024-01-29T05:45:49.248Z,98831.28
2024-01-29T05:48:17.070Z,98832.34
2024-01-29T05:50:44.663Z,98837.63
2024-01-29T05:53:12.271Z,98837.63
2024-01-29T05:55:40.736Z,98837.63
2024-01-29T05:58:08.503Z,98837.69
2024-01-29T06:00:36.861Z,98842.31
2024-01-29T06:03:04.859Z,98840.72
2024-01-29T06:05:32.529Z,98836.47
2024-01-29T06:08:00.265Z,98842.69
2024-01-29T06:10:28.265Z,98845.41
2024-01-29T06:12:55.868Z,98844.66
2024-01-29T06:15:25.030Z,98840.34
2024-01-29T06:17:52.735Z,98848.25
2024-01-29T06:20:20.751Z,98851.81
2024-01-29T06:22:48.534Z,98854.25
2024-01-29T06:25:20.521Z,98849.75
2024-01-29T06:27:48.260Z,98849.75
2024-01-29T06:30:16.682Z,98848.03
2024-01-29T06:32:44.485Z,98852.47
2024-01-29T06:35:12.185Z,98847.41
2024-01-29T06:37:40.226Z,98838.63
2024-01-29T06:40:09.369Z,98845.78
2024-01-29T06:42:37.514Z,98845.69
2024-01-29T06:45:05.911Z,98847.47
2024-01-29T06:47:33.716Z,98845.69
2024-01-29T06:50:01.638Z,98848.41
2024-01-29T06:52:29.408Z,98851.88
2024-01-29T06:54:57.584Z,98861.41
2024-01-29T06:57:25.222Z,98849.09
2024-01-29T06:59:52.922Z,98850.03
2024-01-29T07:02:20.520Z,98852.69
2024-01-29T07:04:48.186Z,98851.03
2024-01-29T07:07:16.287Z,98852.75
2024-01-29T07:09:43.919Z,98862.53
2024-01-29T07:12:11.522Z,98864.31
2024-01-29T07:14:41.938Z,98875.72
2024-01-29T07:17:09.913Z,98874.00
2024-01-29T07:19:37.743Z,98871.38
2024-01-29T07:22:06.585Z,98886.34
2024-01-29T07:24:38.208Z,98874.00
2024-01-29T07:27:06.012Z,98875.81
2024-01-29T07:29:33.602Z,98881.09
2024-01-29T07:32:01.173Z,98882.88
2024-01-29T07:34:29.093Z,98875.72
2024-01-29T07:36:56.792Z,98878.25
2024-01-29T07:39:25.270Z,98885.16
2024-01-29T07:41:52.874Z,98887.59
2024-01-29T07:44:20.518Z,98886.56
2024-01-29T07:46:55.029Z,98891.47
2024-01-29T07:49:22.998Z,98898.25
2024-01-29T07:51:50.658Z,98895.34
2024-01-29T07:54:18.225Z,98903.06
2024-01-29T07:56:45.812Z,98901.09
2024-01-29T07:59:13.515Z,98906.84
2024-01-29T08:01:41.281Z,98905.72
2024-01-29T08:04:09.123Z,98904.50
2024-01-29T08:06:36.850Z,98910.34
2024-01-29T08:09:07.190Z,98914.59
2024-01-29T08:11:34.765Z,98916.09
2024-01-29T08:14:02.363Z,98907.03
2024-01-29T08:16:30.071Z,98915.53
2024-01-29T08:18:58.622Z,98911.84
2024-01-29T08:21:26.402Z,98913.38
2024-01-29T08:23:53.978Z,98917.53
2024-01-29T08:26:21.703Z,98919.13
2024-01-29T08:28:49.259Z,98921.59
2024-01-29T08:31:16.846Z,98926.47
2024-01-29T08:33:44.993Z,98931.53
2024-01-29T08:36:12.676Z,98941.94
2024-01-29T08:38:41.996Z,98938.31
2024-01-29T08:41:10.191Z,98944.41
2024-01-29T08:43:37.752Z,98938.06
2024-01-29T08:46:05.480Z,98944.94
2024-01-29T08:48:33.840Z,98947.47
2024-01-29T08:51:01.482Z,98939.47
2024-01-29T08:53:29.075Z,98949.75
2024-01-29T08:55:56.876Z,98942.66
2024-01-29T08:58:26.415Z,98941.53
2024-01-29T09:00:55.935Z,98949.25
2024-01-29T09:03:25.705Z,98949.91
2024-01-29T09:05:53.745Z,98944.44
2024-01-29T09:08:23.433Z,98943.31
2024-01-29T09:10:51.041Z,98958.00
2024-01-29T09:13:18.663Z,98951.69
2024-01-29T09:15:46.466Z,98944.41
2024-01-29T09:18:14.140Z,98948.47
2024-01-29T09:20:41.887Z,98957.13
2024-01-29T09:23:09.912Z,98961.28
2024-01-29T09:25:37.467Z,98957.56
2024-01-29T09:28:05.458Z,98964.34
2024-01-29T09:30:33.602Z,98963.41
2024-01-29T09:33:10.720Z,98968.63
2024-01-29T09:35:45.636Z,98973.69
2024-01-29T09:38:15.383Z,98976.06
2024-01-29T09:40:47.430Z,98973.19
2024-01-29T09:43:21.800Z,98975.66
2024-01-29T09:45:53.583Z,98973.59
2024-01-29T09:48:23.440Z,98972.34
2024-01-29T09:50:51.936Z,98973.09
2024-01-29T09:53:22.039Z,98974.59
2024-01-29T09:55:49.979Z,98966.34
2024-01-29T09:58:17.656Z,98972.19
2024-01-29T10:00:45.339Z,98970.19
2024-01-29T10:03:33.334Z,98975.06
2024-01-29T10:06:00.982Z,98981.84
2024-01-29T10:08:30.847Z,98982.41
2024-01-29T10:10:58.911Z,98991.69
2024-01-29T10:13:26.577Z,98989.59
2024-01-29T10:15:54.244Z,98984.88
2024-01-29T10:18:25.759Z,98995.03
2024-01-29T10:21:05.855Z,98981.38
2024-01-29T10:23:33.979Z,98988.91
2024-01-29T10:26:02.242Z,98986.91
2024-01-29T10:28:29.912Z,98981.19
2024-01-29T10:30:59.694Z,98979.91
2024-01-29T10:33:27.557Z,98977.72
2024-01-29T10:35:59.082Z,98970.28
2024-01-29T10:38:29.632Z,98971.66
2024-01-29T10:40:59.546Z,98969.44
2024-01-29T10:43:38.398Z,98973.47
2024-01-29T10:46:08.742Z,98972.16
2024-01-29T10:48:37.797Z,98963.91
2024-01-29T10:51:06.921Z,98967.94
2024-01-29T10:53:35.516Z,98971.06
2024-01-29T10:56:04.707Z,98968.13
2024-01-29T10:58:32.709Z,98972.25
2024-01-29T11:01:01.501Z,98966.59
2024-01-29T11:03:30.574Z,98968.94
2024-01-29T11:06:20.569Z,98958.97
2024-01-29T11:08:55.831Z,98954.91
2024-01-29T11:11:24.666Z,98956.25
2024-01-29T11:13:52.735Z,98950.66
2024-01-29T11:16:23.579Z,98956.34
2024-01-29T11:18:52.052Z,98939.25
2024-01-29T11:21:25.152Z,98943.97
2024-01-29T11:23:57.208Z,98940.03
2024-01-29T11:26:29.495Z,98943.06
2024-01-29T11:29:08.398Z,98933.69
2024-01-29T11:31:42.028Z,98933.84
2024-01-29T11:34:10.574Z,98927.13
2024-01-29T11:36:39.972Z,98926.59
2024-01-29T11:39:10.003Z,98923.47
2024-01-29T11:41:38.944Z,98916.84
2024-01-29T11:44:06.933Z,98919.75
2024-01-29T11:46:34.544Z,98915.78
2024-01-29T11:49:02.544Z,98916.28
2024-01-29T11:51:30.611Z,98911.44
2024-01-29T11:54:00.560Z,98912.78
2024-01-29T11:56:28.502Z,98907.72
2024-01-29T11:59:03.467Z,98910.03
2024-01-29T12:01:34.790Z,98912.19
2024-01-29T12:04:03.485Z,98907.97
2024-01-29T12:06:33.442Z,98910.16
2024-01-29T12:09:01.379Z,98898.03
2024-01-29T12:11:29.137Z,98903.72
2024-01-29T12:13:58.276Z,98901.53
2024-01-29T12:16:26.987Z,98899.13
2024-01-29T12:18:56.163Z,98895.84
2024-01-29T12:21:27.901Z,98888.09
2024-01-29T12:23:56.896Z,98894.47
2024-01-29T12:26:29.722Z,98891.19
2024-01-29T12:29:00.226Z,98889.72
2024-01-29T12:31:29.158Z,98881.81
2024-01-29T12:33:56.908Z,98884.56
2024-01-29T12:36:25.026Z,98885.75
2024-01-29T12:38:55.298Z,98876.13
2024-01-29T12:41:23.613Z,98880.81
2024-01-29T12:43:52.679Z,98884.81
2024-01-29T12:46:20.659Z,98876.31
2024-01-29T12:48:48.768Z,98867.94
2024-01-29T12:51:16.850Z,98869.25
2024-01-29T12:53:56.669Z,98871.25
2024-01-29T12:56:30.968Z,98864.28
2024-01-29T12:58:58.763Z,98862.91
2024-01-29T13:01:27.219Z,98861.41
2024-01-29T13:03:55.163Z,98850.22
2024-01-29T13:06:23.843Z,98856.84
2024-01-29T13:08:51.857Z,98850.00
2024-01-29T13:11:19.675Z,98856.59
2024-01-29T13:13:47.372Z,98850.75
2024-01-29T13:16:15.007Z,98855.53
2024-01-29T13:18:42.790Z,98856.94
2024-01-29T13:21:10.966Z,98847.69
2024-01-29T13:23:39.286Z,98855.13
2024-01-29T13:26:08.471Z,98854.59
2024-01-29T13:28:36.198Z,98838.91
2024-01-29T13:31:04.118Z,98840.19
2024-01-29T13:33:31.991Z,98845.66
2024-01-29T13:36:00.669Z,98844.25
2024-01-29T13:38:28.309Z,98841.16
2024-01-29T13:40:55.921Z,98845.81
2024-01-29T13:43:23.569Z,98840.91
2024-01-29T13:45:51.385Z,98836.53
2024-01-29T13:48:19.482Z,98835.75
2024-01-29T13:50:47.462Z,98836.72
2024-01-29T13:53:15.485Z,98837.13
2024-01-29T13:55:43.217Z,98829.28
2024-01-29T13:58:11.109Z,98838.25
2024-01-29T14:00:38.863Z,98838.53
2024-01-29T14:03:06.564Z,98837.78
2024-01-29T14:05:34.885Z,98836.38
2024-01-29T14:08:02.601Z,98836.66
2024-01-29T14:10:35.395Z,98837.75
2024-01-29T14:13:04.565Z,98827.47
2024-01-29T14:15:32.279Z,98830.41
2024-01-29T14:18:00.019Z,98829.13
2024-01-29T14:20:27.999Z,98828.69
2024-01-29T14:22:58.312Z,98832.59
2024-01-29T14:25:26.360Z,98830.75
2024-01-29T14:27:54.055Z,98833.97
2024-01-29T14:30:21.692Z,98833.69
2024-01-29T14:32:49.534Z,98830.72
2024-01-29T14:35:17.386Z,98834.09
2024-01-29T14:37:44.979Z,98838.44
2024-01-29T14:40:12.626Z,98840.84
2024-01-29T14:42:40.318Z,98835.31
2024-01-29T14:45:08.165Z,98840.66
2024-01-29T14:47:35.902Z,98833.50
2024-01-29T14:50:05.089Z,98827.31
2024-01-29T14:52:32.789Z,98827.47
2024-01-29T14:55:00.552Z,98829.13
2024-01-29T14:57:28.221Z,98834.50
2024-01-29T14:59:55.826Z,98828.16
2024-01-29T15:02:23.513Z,98829.97
2024-01-29T15:04:51.290Z,98830.66
2024-01-29T15:07:19.033Z,98829.56
2024-01-29T15:09:46.743Z,98837.56
2024-01-29T15:12:14.428Z,98831.91
2024-01-29T15:14:42.029Z,98830.25
2024-01-29T15:17:09.692Z,98828.53
2024-01-29T15:19:38.049Z,98830.38
2024-01-29T15:22:07.253Z,98838.53
2024-01-29T15:24:36.391Z,98829.84
2024-01-29T15:27:04.299Z,98835.50
2024-01-29T15:29:31.962Z,98843.94
2024-01-29T15:31:59.731Z,98841.56
2024-01-29T15:34:27.411Z,98846.19
2024-01-29T15:36:55.200Z,98843.97
2024-01-29T15:39:23.527Z,98838.22
2024-01-29T15:41:51.815Z,98843.03
2024-01-29T15:44:19.415Z,98845.31
2024-01-29T15:46:48.530Z,98847.56
2024-01-29T15:49:16.304Z,98848.16
2024-01-29T15:51:43.961Z,98849.56
2024-01-29T15:54:11.537Z,98848.63
2024-01-29T15:56:39.098Z,98852.69
2024-01-29T15:59:06.769Z,98846.25
2024-01-29T16:01:34.511Z,98842.44
2024-01-29T16:04:02.672Z,98843.16
2024-01-29T16:06:30.472Z,98853.72
2024-01-29T16:08:58.337Z,98845.44
2024-01-29T16:11:25.957Z,98856.69
2024-01-29T16:13:53.528Z,98852.06
2024-01-29T16:16:21.165Z,98855.13
2024-01-29T16:18:49.145Z,98853.97
2024-01-29T16:21:23.061Z,98850.03
2024-01-29T16:23:51.995Z,98858.44
2024-01-29T16:26:20.537Z,98866.59
2024-01-29T16:28:48.139Z,98865.19
2024-01-29T16:31:15.934Z,98864.91
2024-01-29T16:33:44.185Z,98860.13
2024-01-29T16:36:23.551Z,98869.50
2024-01-29T16:38:54.900Z,98864.72
2024-01-29T16:41:26.671Z,98866.25
2024-01-29T16:43:55.345Z,98865.94
2024-01-29T16:46:24.423Z,98868.19
2024-01-29T16:48:52.240Z,98868.03
2024-01-29T16:51:27.819Z,98863.91
2024-01-29T16:53:55.550Z,98860.81
2024-01-29T16:56:35.104Z,98870.06
2024-01-29T16:59:08.972Z,98866.81
2024-01-29T17:01:36.978Z,98863.59
2024-01-29T17:04:04.895Z,98865.94
2024-01-29T17:06:32.641Z,98866.44
2024-01-29T17:09:00.747Z,98863.25
2024-01-29T17:11:28.344Z,98864.44
2024-01-29T17:13:56.034Z,98869.22
2024-01-29T17:16:23.716Z,98865.00
2024-01-29T17:18:51.455Z,98868.91
2024-01-29T17:21:19.191Z,98866.50
2024-01-29T17:23:46.821Z,98872.09
2024-01-29T17:26:15.068Z,98869.81
2024-01-29T17:28:46.183Z,98869.25
2024-01-29T17:31:14.026Z,98876.63
2024-01-29T17:33:41.835Z,98868.06
2024-01-29T17:36:10.037Z,98869.19
2024-01-29T17:38:40.888Z,98870.13
2024-01-29T17:41:08.554Z,98869.03
2024-01-29T17:43:36.148Z,98868.53
2024-01-29T17:46:03.901Z,98877.53
2024-01-29T17:48:31.688Z,98877.00
2024-01-29T17:50:59.603Z,98873.09
2024-01-29T17:53:29.801Z,98873.56
2024-01-29T17:55:57.824Z,98873.31
2024-01-29T17:58:25.437Z,98870.66
2024-01-29T18:00:53.382Z,98870.50
2024-01-29T18:03:23.726Z,98873.16
2024-01-29T18:05:51.327Z,98867.69
2024-01-29T18:08:20.705Z,98872.78
2024-01-29T18:10:48.361Z,98870.69
2024-01-29T18:13:15.993Z,98872.09
2024-01-29T18:15:43.654Z,98870.16
2024-01-29T18:18:11.405Z,98869.03
2024-01-29T18:20:39.046Z,98865.28
2024-01-29T18:23:09.452Z,98872.41
2024-01-29T18:25:40.107Z,98869.75
2024-01-29T18:28:08.036Z,98866.13
2024-01-29T18:30:36.725Z,98867.22
2024-01-29T18:33:04.843Z,98862.88
2024-01-29T18:35:32.508Z,98864.69
2024-01-29T18:38:00.073Z,98861.16
2024-01-29T18:40:33.257Z,98857.81
2024-01-29T18:43:01.177Z,98861.59
2024-01-29T18:45:28.909Z,98863.41
2024-01-29T18:47:56.732Z,98863.53
2024-01-29T18:50:24.470Z,98857.38
2024-01-29T18:52:52.138Z,98862.00
2024-01-29T18:55:20.244Z,98861.41
2024-01-29T18:57:47.970Z,98861.78
2024-01-29T19:00:16.649Z,98863.16
2024-01-29T19:02:44.757Z,98869.72
2024-01-29T19:05:13.448Z,98879.94
2024-01-29T19:07:43.260Z,98893.91
2024-01-29T19:10:11.572Z,98902.56
2024-01-29T19:12:39.338Z,98895.56
2024-01-29T19:15:08.036Z,98899.97
2024-01-29T19:17:35.820Z,98902.06
2024-01-29T19:20:04.541Z,98909.97
2024-01-29T19:22:32.152Z,98914.38
2024-01-29T19:25:01.742Z,98914.16
2024-01-29T19:27:29.915Z,98910.41
2024-01-29T19:29:57.465Z,98915.53
2024-01-29T19:32:25.989Z,98916.13
2024-01-29T19:34:53.766Z,98910.22
2024-01-29T19:37:26.854Z,98906.22
2024-01-29T19:39:55.634Z,98905.91
2024-01-29T19:42:23.254Z,98902.19
2024-01-29T19:44:50.913Z,98898.53
2024-01-29T19:47:18.694Z,98895.66
2024-01-29T19:49:47.523Z,98891.66
2024-01-29T19:52:15.524Z,98901.69
2024-01-29T19:54:45.115Z,98901.78
2024-01-29T19:57:12.776Z,98906.38
2024-01-29T19:59:40.850Z,98896.13
2024-01-29T20:02:08.658Z,98900.22
2024-01-29T20:04:39.266Z,98907.84
2024-01-29T20:07:07.628Z,98901.31
2024-01-29T20:09:35.469Z,98897.19
2024-01-29T20:12:03.050Z,98895.75
2024-01-29T20:14:31.348Z,98898.63
2024-01-29T20:16:58.940Z,98896.22
2024-01-29T20:19:28.483Z,98888.38
2024-01-29T20:21:56.161Z,98888.75
2024-01-29T20:24:23.721Z,98882.56
2024-01-29T20:26:51.372Z,98890.78
2024-01-29T20:29:19.012Z,98899.56
2024-01-29T20:31:46.562Z,98894.28
2024-01-29T20:34:14.564Z,98895.72
2024-01-29T20:36:42.828Z,98893.19
2024-01-29T20:39:11.961Z,98898.59
2024-01-29T20:41:46.982Z,98898.75
2024-01-29T20:44:16.203Z,98896.09
2024-01-29T20:46:46.462Z,98889.19
2024-01-29T20:49:14.977Z,98895.91
2024-01-29T20:51:42.703Z,98891.81
2024-01-29T20:54:13.381Z,98892.13
2024-01-29T20:56:40.927Z,98897.53
2024-01-29T20:59:08.727Z,98889.59
2024-01-29T21:01:36.681Z,98895.34
2024-01-29T21:04:05.947Z,98891.47
2024-01-29T21:06:33.766Z,98898.94
2024-01-29T21:09:01.605Z,98893.97
2024-01-29T21:11:29.291Z,98884.81
2024-01-29T21:13:56.948Z,98881.63
2024-01-29T21:16:26.330Z,98892.25
2024-01-29T21:18:55.162Z,98888.84
2024-01-29T21:21:24.730Z,98882.19
2024-01-29T21:23:52.323Z,98881.81
2024-01-29T21:26:27.507Z,98878.66
2024-01-29T21:28:55.813Z,98876.00
2024-01-29T21:31:23.957Z,98881.50
2024-01-29T21:33:51.687Z,98887.16
2024-01-29T21:36:20.503Z,98892.72
2024-01-29T21:38:48.079Z,98890.47
2024-01-29T21:41:15.658Z,98889.75
2024-01-29T21:43:43.535Z,98907.25
2024-01-29T21:46:12.362Z,98905.53
2024-01-29T21:48:40.182Z,98907.13
2024-01-29T21:51:07.958Z,98907.47
2024-01-29T21:53:35.895Z,98905.16
2024-01-29T21:56:04.038Z,98907.91
2024-01-29T21:58:31.854Z,98907.50
2024-01-29T22:00:59.581Z,98910.38
2024-01-29T22:03:27.242Z,98904.44
2024-01-29T22:05:54.830Z,98905.28
2024-01-29T22:08:22.405Z,98906.25
2024-01-29T22:10:50.010Z,98905.53
2024-01-29T22:13:17.853Z,98899.50
2024-01-29T22:15:45.501Z,98900.22
2024-01-29T22:18:13.118Z,98902.00
2024-01-29T22:20:40.696Z,98901.28
2024-01-29T22:23:08.521Z,98896.84
2024-01-29T22:25:36.179Z,98902.63
2024-01-29T22:28:04.818Z,98906.44
2024-01-29T22:30:33.268Z,98904.75
2024-01-29T22:33:00.910Z,98913.41
2024-01-29T22:35:28.588Z,98907.28
2024-01-29T22:37:56.143Z,98905.72
2024-01-29T22:40:23.803Z,98907.38
2024-01-29T22:42:52.485Z,98915.44
2024-01-29T22:45:20.143Z,98913.22
2024-01-29T22:47:47.705Z,98912.50
2024-01-29T22:50:15.345Z,98912.50
2024-01-29T22:52:45.739Z,98916.22
2024-01-29T22:55:13.549Z,98920.88
2024-01-29T22:57:41.181Z,98919.19
2024-01-29T23:00:17.322Z,98920.25
2024-01-29T23:02:45.265Z,98918.69
2024-01-29T23:05:13.796Z,98912.53
2024-01-29T23:07:44.160Z,98914.97
2024-01-29T23:10:11.878Z,98916.31
2024-01-29T23:12:39.886Z,98920.13
2024-01-29T23:15:09.345Z,98916.81
2024-01-29T23:17:37.061Z,98915.19
2024-01-29T23:20:05.460Z,98917.78
2024-01-29T23:22:33.100Z,98919.88
2024-01-29T23:25:01.218Z,98913.19
2024-01-29T23:27:28.833Z,98918.25
2024-01-29T23:29:56.914Z,98912.84
2024-01-29T23:32:24.483Z,98905.97
2024-01-29T23:34:52.229Z,98915.72
2024-01-29T23:37:24.968Z,98906.06
2024-01-29T23:39:54.782Z,98918.13
2024-01-29T23:42:22.875Z,98915.47
2024-01-29T23:44:50.483Z,98910.91
2024-01-29T23:47:18.055Z,98913.34
2024-01-29T23:49:45.696Z,98913.97
2024-01-29T23:52:13.757Z,98912.25
2024-01-29T23:54:41.385Z,98908.66
2024-01-29T23:57:08.997Z,98908.66
2024-01-29T23:59:36.574Z,98900.59
